Time;durP1;ratioP1;P1;durP2;ratioP2;P2;SDS_P1;SDS_P2;PMS_P1;PMS_P2;Temp;Humidity;BMP_temperature;BMP_pressure;BME280_temperature;BME280_humidity;BME280_pressure;Samples;Min_cycle;Max_cycle;Signal;HPM_P1;HPM_P2
2021/06/30 00:02:11;;;;;;;;;;;18.40;91.60;;;;;;4933180;28;20290;-56
2021/06/30 00:04:37;;;;;;;;;;;18.40;91.60;;;;;;4933427;28;19927;-56
2021/06/30 00:07:04;;;;;;;;;;;18.50;91.60;;;;;;4933188;28;20002;-56
2021/06/30 00:09:29;;;;;;;;;;;18.40;91.60;;;;;;4932940;28;19987;-56
2021/06/30 00:11:55;;;;;;;;;;;18.40;91.60;;;;;;4933562;28;20375;-56
2021/06/30 00:14:21;;;;;;;;;;;18.40;91.60;;;;;;4933198;28;19972;-56
2021/06/30 00:16:48;;;;;;;;;;;18.40;91.60;;;;;;4933203;28;19923;-56
2021/06/30 00:19:13;;;;;;;;;;;18.40;91.70;;;;;;4931899;28;19922;-56
2021/06/30 00:21:39;;;;;;;;;;;18.40;91.70;;;;;;4933205;28;20025;-56
2021/06/30 00:24:06;;;;;;;;;;;18.40;91.80;;;;;;4933320;28;19935;-56
2021/06/30 00:26:31;;;;;;;;;;;18.40;91.90;;;;;;4933283;28;19923;-56
2021/06/30 00:28:57;;;;;;;;;;;18.40;91.90;;;;;;4931202;28;20332;-56
2021/06/30 00:31:22;;;;;;;;;;;18.40;91.90;;;;;;4933164;28;19919;-56
2021/06/30 00:33:48;;;;;;;;;;;18.40;91.80;;;;;;4931952;28;19926;-56
2021/06/30 00:36:14;;;;;;;;;;;18.40;91.80;;;;;;4932864;28;19958;-56
2021/06/30 00:38:39;;;;;;;;;;;18.40;91.70;;;;;;4931448;29;20010;-56
2021/06/30 00:41:05;;;;;;;;;;;18.40;91.70;;;;;;4932780;28;19918;-56
2021/06/30 00:43:31;;;;;;;;;;;18.30;91.70;;;;;;4932979;28;19919;-56
2021/06/30 00:45:57;;;;;;;;;;;18.30;91.70;;;;;;4932917;28;20521;-56
2021/06/30 00:48:22;;;;;;;;;;;18.30;91.70;;;;;;4931001;28;20001;-56
2021/06/30 00:50:48;;;;;;;;;;;18.20;91.80;;;;;;4932838;28;20421;-56
2021/06/30 00:53:13;;;;;;;;;;;18.20;91.80;;;;;;4932922;28;20397;-56
2021/06/30 00:55:39;;;;;;;;;;;18.10;91.70;;;;;;4932532;28;19919;-56
2021/06/30 00:58:05;;;;;;;;;;;18.00;91.80;;;;;;4932536;28;19950;-56
2021/06/30 01:00:30;;;;;;;;;;;18.00;91.80;;;;;;4932416;28;19923;-57
2021/06/30 01:02:56;;;;;;;;;;;18.00;91.90;;;;;;4931470;28;20053;-56
2021/06/30 01:05:22;;;;;;;;;;;17.90;91.90;;;;;;4932705;28;20084;-56
2021/06/30 01:07:48;;;;;;;;;;;17.90;92.00;;;;;;4931974;28;20014;-56
2021/06/30 01:10:14;;;;;;;;;;;17.90;92.10;;;;;;4932340;28;19984;-56
2021/06/30 01:12:39;;;;;;;;;;;17.90;92.00;;;;;;4932646;28;19923;-55
2021/06/30 01:15:06;;;;;;;;;;;17.80;92.00;;;;;;4932054;28;20298;-56
2021/06/30 01:17:32;;;;;;;;;;;17.80;92.00;;;;;;4932205;28;19919;-56
2021/06/30 01:19:58;;;;;;;;;;;17.80;92.00;;;;;;4932037;28;20283;-56
2021/06/30 01:22:24;;;;;;;;;;;17.80;92.00;;;;;;4932469;28;19919;-56
2021/06/30 01:24:51;;;;;;;;;;;17.70;92.00;;;;;;4932378;28;19933;-56
2021/06/30 01:27:18;;;;;;;;;;;17.70;92.00;;;;;;4931714;28;19954;-56
2021/06/30 01:29:44;;;;;;;;;;;17.70;92.00;;;;;;4932286;28;20005;-55
2021/06/30 01:32:10;;;;;;;;;;;17.60;92.00;;;;;;4932388;28;19918;-56
2021/06/30 01:34:35;;;;;;;;;;;17.60;92.10;;;;;;4931815;28;20328;-56
2021/06/30 01:37:01;;;;;;;;;;;17.60;92.10;;;;;;4930772;28;19956;-56
2021/06/30 01:39:27;;;;;;;;;;;17.50;92.20;;;;;;4931760;28;20294;-56
2021/06/30 01:41:52;;;;;;;;;;;17.50;92.10;;;;;;4932085;28;19919;-56
2021/06/30 01:44:18;;;;;;;;;;;17.50;92.20;;;;;;4932106;28;19925;-56
2021/06/30 01:46:44;;;;;;;;;;;17.50;92.30;;;;;;4931399;28;19927;-56
2021/06/30 01:49:09;;;;;;;;;;;17.50;92.50;;;;;;4931902;28;19926;-56
2021/06/30 01:51:35;;;;;;;;;;;17.50;92.60;;;;;;4940127;28;19919;-56
2021/06/30 01:54:02;;;;;;;;;;;17.60;92.60;;;;;;4940389;28;20064;-56
2021/06/30 01:56:29;;;;;;;;;;;17.70;92.70;;;;;;4945766;28;19918;-56
2021/06/30 01:58:59;;;;;;;;;;;17.80;92.80;;;;;;4942416;28;19927;-56
2021/06/30 02:01:25;;;;;;;;;;;17.80;92.70;;;;;;4931942;28;19968;-56
2021/06/30 02:03:50;;;;;;;;;;;17.90;92.70;;;;;;4930679;28;19919;-56
2021/06/30 02:06:16;;;;;;;;;;;18.00;92.70;;;;;;4931464;28;19930;-56
2021/06/30 02:08:41;;;;;;;;;;;18.00;92.60;;;;;;4931239;28;19915;-56
2021/06/30 02:11:07;;;;;;;;;;;18.10;92.60;;;;;;4931561;28;19919;-56
2021/06/30 02:13:32;;;;;;;;;;;18.10;92.60;;;;;;4931706;28;19993;-56
2021/06/30 02:15:58;;;;;;;;;;;18.20;92.60;;;;;;4931720;28;19957;-56
2021/06/30 02:18:24;;;;;;;;;;;18.20;92.50;;;;;;4930893;28;19981;-56
2021/06/30 02:20:49;;;;;;;;;;;18.20;92.50;;;;;;4931685;28;19919;-56
2021/06/30 02:23:15;;;;;;;;;;;18.20;92.40;;;;;;4930394;29;19919;-56
2021/06/30 02:25:40;;;;;;;;;;;18.10;92.40;;;;;;4931157;28;20359;-56
2021/06/30 02:28:06;;;;;;;;;;;18.10;92.40;;;;;;4931218;28;20379;-56
2021/06/30 02:30:32;;;;;;;;;;;18.10;92.60;;;;;;4931213;28;19919;-56
2021/06/30 02:32:59;;;;;;;;;;;18.10;92.70;;;;;;4931508;28;19922;-56
2021/06/30 02:35:25;;;;;;;;;;;18.10;92.70;;;;;;4931526;28;19938;-56
2021/06/30 02:37:52;;;;;;;;;;;18.20;92.70;;;;;;4930706;28;19929;-56
2021/06/30 02:40:19;;;;;;;;;;;18.20;92.70;;;;;;4930230;28;19942;-56
2021/06/30 02:42:45;;;;;;;;;;;18.20;92.60;;;;;;4931359;28;20384;-55
2021/06/30 02:45:12;;;;;;;;;;;18.20;92.70;;;;;;4931460;28;19923;-62
2021/06/30 02:47:39;;;;;;;;;;;18.30;92.80;;;;;;4931201;28;19958;-60
2021/06/30 02:50:05;;;;;;;;;;;18.30;92.80;;;;;;4930964;28;20288;-60
2021/06/30 02:52:31;;;;;;;;;;;18.30;92.80;;;;;;4931344;28;20021;-61
2021/06/30 02:54:57;;;;;;;;;;;18.40;92.80;;;;;;4931393;28;19919;-61
2021/06/30 02:57:22;;;;;;;;;;;18.50;92.90;;;;;;4930601;28;19919;-61
2021/06/30 02:59:48;;;;;;;;;;;18.50;92.80;;;;;;4931121;28;19919;-61
2021/06/30 03:02:13;;;;;;;;;;;18.60;92.90;;;;;;4930759;28;19926;-60
2021/06/30 03:04:39;;;;;;;;;;;18.60;92.90;;;;;;4933719;28;20013;-61
2021/06/30 03:07:05;;;;;;;;;;;18.70;92.90;;;;;;4934171;28;20005;-61
2021/06/30 03:09:30;;;;;;;;;;;18.60;92.90;;;;;;4934198;28;20350;-60
2021/06/30 03:11:56;;;;;;;;;;;18.70;92.90;;;;;;4932945;29;19918;-61
2021/06/30 03:14:22;;;;;;;;;;;18.70;92.90;;;;;;4934353;28;19919;-61
2021/06/30 03:16:48;;;;;;;;;;;18.70;92.90;;;;;;4933644;28;19969;-62
2021/06/30 03:19:14;;;;;;;;;;;18.70;93.00;;;;;;4934043;28;20413;-60
2021/06/30 03:21:39;;;;;;;;;;;18.80;93.00;;;;;;4933931;28;19926;-60
2021/06/30 03:24:05;;;;;;;;;;;18.90;93.10;;;;;;4933029;29;19919;-60
2021/06/30 03:26:30;;;;;;;;;;;18.90;93.00;;;;;;4934067;28;19976;-61
2021/06/30 03:28:56;;;;;;;;;;;18.90;93.00;;;;;;4933348;28;19968;-60
2021/06/30 03:31:22;;;;;;;;;;;18.90;93.00;;;;;;4934091;28;19918;-61
2021/06/30 03:33:47;;;;;;;;;;;19.00;93.00;;;;;;4933986;28;20493;-60
2021/06/30 03:36:13;;;;;;;;;;;19.00;93.00;;;;;;4933651;28;20405;-60
2021/06/30 03:38:38;;;;;;;;;;;19.00;93.00;;;;;;4932337;29;19927;-60
2021/06/30 03:41:04;;;;;;;;;;;19.00;93.00;;;;;;4933593;28;19919;-60
2021/06/30 03:43:30;;;;;;;;;;;19.10;93.00;;;;;;4933909;28;19919;-60
2021/06/30 03:45:55;;;;;;;;;;;19.10;93.00;;;;;;4933859;28;19973;-61
2021/06/30 03:48:21;;;;;;;;;;;19.10;93.10;;;;;;4933150;28;19923;-60
2021/06/30 03:50:46;;;;;;;;;;;19.10;93.00;;;;;;4933826;28;19919;-60
2021/06/30 03:53:12;;;;;;;;;;;19.10;93.00;;;;;;4933832;28;19922;-60
2021/06/30 03:55:38;;;;;;;;;;;19.10;93.00;;;;;;4933392;28;19942;-60
2021/06/30 03:58:03;;;;;;;;;;;19.20;93.00;;;;;;4933275;28;20342;-60
2021/06/30 04:00:29;;;;;;;;;;;19.20;93.00;;;;;;4933298;28;19973;-60
2021/06/30 04:02:54;;;;;;;;;;;19.20;93.00;;;;;;4933748;28;19923;-60
2021/06/30 04:05:21;;;;;;;;;;;19.20;93.00;;;;;;4933581;28;20010;-60
2021/06/30 04:07:46;;;;;;;;;;;19.30;93.00;;;;;;4932786;28;19953;-60
2021/06/30 04:10:12;;;;;;;;;;;19.30;93.00;;;;;;4933560;28;19942;-60
2021/06/30 04:12:37;;;;;;;;;;;19.30;92.90;;;;;;4933087;28;19925;-60
2021/06/30 04:15:04;;;;;;;;;;;19.30;92.90;;;;;;4932941;28;20350;-60
2021/06/30 04:17:29;;;;;;;;;;;19.30;92.90;;;;;;4931750;29;19968;-60
2021/06/30 04:19:55;;;;;;;;;;;19.30;92.90;;;;;;4932761;28;20009;-60
2021/06/30 04:22:20;;;;;;;;;;;19.30;92.80;;;;;;4933534;28;19918;-60
2021/06/30 04:24:46;;;;;;;;;;;19.30;92.90;;;;;;4933188;28;19923;-61
2021/06/30 04:27:11;;;;;;;;;;;19.30;92.90;;;;;;4932430;28;19925;-60
2021/06/30 04:29:37;;;;;;;;;;;19.40;93.00;;;;;;4933206;28;19919;-60
2021/06/30 04:32:03;;;;;;;;;;;19.40;92.90;;;;;;4933173;28;20007;-61
2021/06/30 04:34:28;;;;;;;;;;;19.40;93.00;;;;;;4933004;28;20307;-60
2021/06/30 04:36:54;;;;;;;;;;;19.50;93.20;;;;;;4932874;28;20371;-60
2021/06/30 04:39:20;;;;;;;;;;;19.60;92.90;;;;;;4931353;28;19926;-60
2021/06/30 04:41:46;;;;;;;;;;;19.60;92.90;;;;;;4932620;28;19919;-61
2021/06/30 04:44:12;;;;;;;;;;;19.70;92.80;;;;;;4931191;29;19919;-61
2021/06/30 04:46:38;;;;;;;;;;;19.70;92.60;;;;;;4931935;28;20018;-61
2021/06/30 04:49:03;;;;;;;;;;;19.80;92.60;;;;;;4932507;28;20005;-61
2021/06/30 04:51:29;;;;;;;;;;;19.80;92.50;;;;;;4933048;28;19925;-61
2021/06/30 04:53:54;;;;;;;;;;;19.80;92.60;;;;;;4931508;28;19969;-61
2021/06/30 04:56:26;;;;;;;;;;;19.90;92.70;;;;;;4941659;28;20325;-61
2021/06/30 04:58:55;;;;;;;;;;;19.90;92.50;;;;;;4940297;28;19930;-60
2021/06/30 05:01:21;;;;;;;;;;;20.00;92.50;;;;;;4951781;28;20016;-61
2021/06/30 05:03:46;;;;;;;;;;;20.00;92.40;;;;;;4951304;28;20369;-61
2021/06/30 05:06:12;;;;;;;;;;;20.00;92.30;;;;;;4951634;28;19931;-61
2021/06/30 05:08:38;;;;;;;;;;;20.00;92.10;;;;;;4950866;28;20345;-60
2021/06/30 05:11:04;;;;;;;;;;;20.00;92.00;;;;;;4951209;28;19919;-60
2021/06/30 05:13:29;;;;;;;;;;;19.90;92.00;;;;;;4951472;28;19945;-60
2021/06/30 05:15:55;;;;;;;;;;;19.90;92.00;;;;;;4950347;29;19968;-61
2021/06/30 05:18:20;;;;;;;;;;;19.90;92.00;;;;;;4950141;28;19926;-61
2021/06/30 05:20:47;;;;;;;;;;;19.90;92.10;;;;;;4951534;28;20298;-61
2021/06/30 05:23:13;;;;;;;;;;;19.90;92.10;;;;;;4950906;28;19949;-59
2021/06/30 05:25:38;;;;;;;;;;;19.90;92.00;;;;;;4950301;28;19923;-60
2021/06/30 05:28:04;;;;;;;;;;;20.00;91.90;;;;;;4950645;28;20051;-62
2021/06/30 05:30:30;;;;;;;;;;;20.00;91.80;;;;;;4951148;28;20402;-61
2021/06/30 05:32:55;;;;;;;;;;;20.00;91.70;;;;;;4949852;29;19941;-62
2021/06/30 05:35:21;;;;;;;;;;;20.00;91.90;;;;;;4951377;28;20362;-63
2021/06/30 05:37:46;;;;;;;;;;;20.00;91.90;;;;;;4948521;28;20414;-62
2021/06/30 05:40:12;;;;;;;;;;;20.10;91.90;;;;;;4951162;28;20341;-62
2021/06/30 05:42:38;;;;;;;;;;;20.10;91.80;;;;;;4951039;28;19918;-62
2021/06/30 05:45:06;;;;;;;;;;;20.10;91.70;;;;;;4950712;28;19923;-62
2021/06/30 05:47:32;;;;;;;;;;;20.20;91.70;;;;;;4950367;28;19918;-62
2021/06/30 05:49:57;;;;;;;;;;;20.20;91.80;;;;;;4950623;28;20402;-62
2021/06/30 05:52:23;;;;;;;;;;;20.30;91.80;;;;;;4950908;28;19972;-62
2021/06/30 05:54:48;;;;;;;;;;;20.30;91.70;;;;;;4950680;28;19941;-62
2021/06/30 05:57:14;;;;;;;;;;;20.40;91.80;;;;;;4949560;28;19926;-61
2021/06/30 05:59:39;;;;;;;;;;;20.50;91.80;;;;;;4951005;28;20009;-61
2021/06/30 06:02:05;;;;;;;;;;;20.60;91.70;;;;;;4950656;28;20411;-61
2021/06/30 06:04:31;;;;;;;;;;;20.70;91.60;;;;;;4950514;28;19948;-62
2021/06/30 06:06:56;;;;;;;;;;;20.70;91.30;;;;;;4950133;28;19972;-62
2021/06/30 06:09:22;;;;;;;;;;;20.70;91.30;;;;;;4949143;28;19925;-62
2021/06/30 06:11:47;;;;;;;;;;;20.80;91.30;;;;;;4950662;28;20375;-62
2021/06/30 06:14:13;;;;;;;;;;;20.70;91.10;;;;;;4950705;28;19942;-62
2021/06/30 06:16:39;;;;;;;;;;;20.70;91.10;;;;;;4949788;28;19950;-62
2021/06/30 06:19:05;;;;;;;;;;;20.70;90.90;;;;;;4949849;28;20405;-62
2021/06/30 06:21:32;;;;;;;;;;;20.60;91.00;;;;;;4950705;28;20004;-62
2021/06/30 06:23:58;;;;;;;;;;;20.60;91.10;;;;;;4948900;28;20064;-62
2021/06/30 06:26:23;;;;;;;;;;;20.60;91.10;;;;;;4949926;28;20018;-62
2021/06/30 06:28:49;;;;;;;;;;;20.70;91.10;;;;;;4943190;28;19926;-61
2021/06/30 06:31:17;;;;;;;;;;;20.70;91.00;;;;;;4943692;28;19925;-62
2021/06/30 06:33:43;;;;;;;;;;;20.70;90.90;;;;;;4947237;28;19918;-62
2021/06/30 06:36:09;;;;;;;;;;;20.70;90.80;;;;;;4945533;28;20389;-62
2021/06/30 06:38:36;;;;;;;;;;;20.60;90.70;;;;;;4952154;28;19918;-62
2021/06/30 06:41:02;;;;;;;;;;;20.60;90.80;;;;;;4950580;28;19922;-60
2021/06/30 06:43:27;;;;;;;;;;;20.60;90.80;;;;;;4945228;28;19919;-60
2021/06/30 06:45:53;;;;;;;;;;;20.60;90.80;;;;;;4953753;28;20009;-60
2021/06/30 06:48:19;;;;;;;;;;;20.60;90.80;;;;;;4948580;28;19919;-60
2021/06/30 06:50:44;;;;;;;;;;;20.60;90.60;;;;;;4945598;28;19919;-57
2021/06/30 06:53:10;;;;;;;;;;;20.60;90.50;;;;;;4953593;28;20375;-57
2021/06/30 06:55:35;;;;;;;;;;;20.60;90.60;;;;;;4968201;28;19926;-56
2021/06/30 06:58:01;;;;;;;;;;;20.70;90.70;;;;;;4952683;28;19922;-57
2021/06/30 07:00:27;;;;;;;;;;;20.80;90.40;;;;;;4946311;28;20379;-57
2021/06/30 07:02:53;;;;;;;;;;;20.80;90.30;;;;;;4945988;28;19934;-56
2021/06/30 07:05:18;;;;;;;;;;;20.80;90.20;;;;;;4941012;28;20276;-56
2021/06/30 07:07:44;;;;;;;;;;;20.70;90.00;;;;;;4940820;28;20444;-57
2021/06/30 07:10:13;;;;;;;;;;;20.70;90.10;;;;;;4951737;28;19922;-56
2021/06/30 07:12:39;;;;;;;;;;;20.70;90.10;;;;;;4952339;28;19997;-56
2021/06/30 07:15:06;;;;;;;;;;;20.70;90.10;;;;;;4951720;28;19918;-56
2021/06/30 07:17:33;;;;;;;;;;;20.70;90.00;;;;;;4952478;28;19922;-60
2021/06/30 07:19:58;;;;;;;;;;;20.70;90.00;;;;;;4952844;28;20307;-60
2021/06/30 07:22:24;;;;;;;;;;;20.70;89.90;;;;;;4967737;28;19919;-60
2021/06/30 07:24:49;;;;;;;;;;;20.70;90.00;;;;;;4946675;28;19923;-60
2021/06/30 07:27:15;;;;;;;;;;;20.80;89.70;;;;;;4932852;28;19969;-59
2021/06/30 07:29:41;;;;;;;;;;;20.70;88.90;;;;;;4933991;28;19923;-60
2021/06/30 07:32:07;;;;;;;;;;;20.80;89.30;;;;;;4938138;28;20370;-60
2021/06/30 07:34:32;;;;;;;;;;;20.80;89.90;;;;;;4949560;28;19950;-60
2021/06/30 07:36:58;;;;;;;;;;;21.00;89.90;;;;;;4950187;28;19933;-60
2021/06/30 07:39:24;;;;;;;;;;;21.10;89.10;;;;;;4952421;28;19923;-60
2021/06/30 07:41:50;;;;;;;;;;;21.10;89.10;;;;;;4953074;28;19919;-60
2021/06/30 07:44:16;;;;;;;;;;;21.10;89.20;;;;;;4951599;28;19949;-60
2021/06/30 07:46:42;;;;;;;;;;;21.20;88.60;;;;;;4950906;28;20375;-60
2021/06/30 07:49:07;;;;;;;;;;;21.20;88.40;;;;;;4952035;28;19919;-60
2021/06/30 07:51:33;;;;;;;;;;;21.30;88.20;;;;;;4952905;28;19926;-60
2021/06/30 07:53:59;;;;;;;;;;;21.20;87.40;;;;;;4952667;28;19925;-60
2021/06/30 07:56:42;;;;;;;;;;;21.10;87.10;;;;;;4951796;28;19923;-60
2021/06/30 07:59:09;;;;;;;;;;;21.10;87.50;;;;;;4952349;28;19922;-60
2021/06/30 08:01:36;;;;;;;;;;;21.00;87.50;;;;;;4948116;28;19923;-60
2021/06/30 08:04:05;;;;;;;;;;;20.90;87.40;;;;;;4925465;28;20421;-61
2021/06/30 08:06:31;;;;;;;;;;;20.80;87.10;;;;;;4951975;28;19926;-60
2021/06/30 08:08:57;;;;;;;;;;;20.70;86.90;;;;;;4933041;28;20021;-60
2021/06/30 08:11:25;;;;;;;;;;;20.60;87.00;;;;;;4932960;28;19925;-60
2021/06/30 08:13:51;;;;;;;;;;;20.50;87.30;;;;;;4933181;28;19923;-60
2021/06/30 08:16:18;;;;;;;;;;;20.30;87.50;;;;;;4932403;28;19965;-60
2021/06/30 08:18:43;;;;;;;;;;;20.30;87.70;;;;;;4931972;28;20355;-60
2021/06/30 08:21:09;;;;;;;;;;;20.20;88.00;;;;;;4946514;28;19957;-60
2021/06/30 08:23:34;;;;;;;;;;;20.30;88.30;;;;;;4951305;28;19949;-61
2021/06/30 08:26:00;;;;;;;;;;;20.30;88.40;;;;;;4943881;28;20010;-60
2021/06/30 08:28:27;;;;;;;;;;;20.30;88.60;;;;;;4950618;28;19980;-60
2021/06/30 08:30:53;;;;;;;;;;;20.30;88.60;;;;;;4930086;28;20476;-60
2021/06/30 08:33:18;;;;;;;;;;;20.40;88.70;;;;;;4932855;28;19919;-59
2021/06/30 08:35:44;;;;;;;;;;;20.40;88.70;;;;;;4932501;28;19922;-60
2021/06/30 08:38:10;;;;;;;;;;;20.50;88.60;;;;;;4931731;28;19926;-60
2021/06/30 08:40:37;;;;;;;;;;;20.50;88.60;;;;;;4932678;28;19944;-60
2021/06/30 08:43:04;;;;;;;;;;;20.50;88.20;;;;;;4932228;28;19923;-60
2021/06/30 08:45:29;;;;;;;;;;;20.50;87.90;;;;;;4932508;28;19918;-60
2021/06/30 08:47:55;;;;;;;;;;;20.50;88.20;;;;;;4931852;28;20335;-60
2021/06/30 08:50:21;;;;;;;;;;;20.40;87.90;;;;;;4932161;28;19923;-60
2021/06/30 08:52:48;;;;;;;;;;;20.40;88.10;;;;;;4932520;28;19918;-60
2021/06/30 08:55:15;;;;;;;;;;;20.30;88.20;;;;;;4931978;28;20009;-60
2021/06/30 08:57:44;;;;;;;;;;;20.30;88.10;;;;;;4931247;28;20357;-60
2021/06/30 09:00:10;;;;;;;;;;;20.30;88.10;;;;;;4932211;28;19969;-60
2021/06/30 09:02:35;;;;;;;;;;;20.30;88.50;;;;;;4931933;28;19927;-60
2021/06/30 09:07:48;;;;;;;;;;;20.40;89.20;;;;;;4930897;28;20367;-60
2021/06/30 09:10:32;;;;;;;;;;;20.40;88.50;;;;;;4931589;28;19921;-60
2021/06/30 09:12:59;;;;;;;;;;;20.40;88.20;;;;;;4931505;28;20310;-60
2021/06/30 09:15:35;;;;;;;;;;;20.40;88.20;;;;;;4932277;28;19915;-60
2021/06/30 09:18:21;;;;;;;;;;;20.50;88.30;;;;;;4930754;28;19927;-60
2021/06/30 09:20:47;;;;;;;;;;;20.50;88.50;;;;;;4931926;28;19999;-60
2021/06/30 09:23:14;;;;;;;;;;;20.60;88.50;;;;;;4931458;28;20023;-60
2021/06/30 09:25:41;;;;;;;;;;;20.70;88.50;;;;;;4930637;28;20012;-60
2021/06/30 09:28:16;;;;;;;;;;;20.80;88.60;;;;;;4929551;28;20140;-60
2021/06/30 09:30:54;;;;;;;;;;;21.00;88.70;;;;;;4931092;28;19918;-60
2021/06/30 09:33:20;;;;;;;;;;;21.20;88.30;;;;;;4931164;28;19919;-60
2021/06/30 09:35:45;;;;;;;;;;;21.40;87.80;;;;;;4927503;28;19926;-60
2021/06/30 09:38:31;;;;;;;;;;;21.50;87.10;;;;;;4930404;28;19919;-60
2021/06/30 09:40:57;;;;;;;;;;;21.50;86.70;;;;;;4930073;29;19973;-60
2021/06/30 09:43:27;;;;;;;;;;;21.50;86.60;;;;;;4931223;28;19919;-60
2021/06/30 09:45:53;;;;;;;;;;;21.60;86.20;;;;;;4930084;29;20018;-60
2021/06/30 09:48:30;;;;;;;;;;;21.70;86.60;;;;;;4930817;28;20002;-60
2021/06/30 09:50:56;;;;;;;;;;;21.70;86.60;;;;;;4930629;28;19998;-60
2021/06/30 09:53:31;;;;;;;;;;;21.90;86.00;;;;;;4931243;28;19926;-60
2021/06/30 09:56:09;;;;;;;;;;;22.00;85.50;;;;;;4930981;28;20231;-60
2021/06/30 09:58:34;;;;;;;;;;;22.20;86.10;;;;;;4944082;28;20367;-60
2021/06/30 10:01:17;;;;;;;;;;;22.40;85.80;;;;;;4945323;28;19925;-60
2021/06/30 10:03:43;;;;;;;;;;;22.60;84.90;;;;;;4948572;28;20327;-60
2021/06/30 10:06:28;;;;;;;;;;;22.60;84.40;;;;;;4949796;28;19965;-60
2021/06/30 10:08:54;;;;;;;;;;;22.60;83.50;;;;;;4964340;28;19922;-60
2021/06/30 10:11:20;;;;;;;;;;;22.60;83.10;;;;;;4949907;28;19930;-60
2021/06/30 10:13:46;;;;;;;;;;;22.50;83.30;;;;;;4949895;28;20264;-60
2021/06/30 10:16:15;;;;;;;;;;;22.60;83.30;;;;;;4950438;28;20021;-61
2021/06/30 10:18:41;;;;;;;;;;;22.70;83.40;;;;;;4949196;28;19923;-61
2021/06/30 10:21:06;;;;;;;;;;;22.70;82.70;;;;;;4981304;23;20080;-63
2021/06/30 10:23:32;;;;;;;;;;;22.70;82.00;;;;;;5010975;28;19960;-62
2021/06/30 10:26:01;;;;;;;;;;;22.70;81.80;;;;;;5011355;28;19925;-64
2021/06/30 10:28:30;;;;;;;;;;;22.60;81.60;;;;;;5010703;28;19988;-63
2021/06/30 10:30:56;;;;;;;;;;;22.60;81.70;;;;;;5031047;28;20004;-64
2021/06/30 10:33:29;;;;;;;;;;;22.70;81.40;;;;;;5031308;28;19968;-63
2021/06/30 10:35:54;;;;;;;;;;;22.60;81.40;;;;;;5030890;28;19928;-64
2021/06/30 10:38:20;;;;;;;;;;;22.70;81.80;;;;;;5030813;28;19921;-63
2021/06/30 10:40:45;;;;;;;;;;;22.80;80.70;;;;;;5029007;28;20391;-63
2021/06/30 10:43:13;;;;;;;;;;;22.80;80.50;;;;;;5030946;28;19999;-62
2021/06/30 10:45:40;;;;;;;;;;;22.80;80.20;;;;;;5029909;28;19925;-60
2021/06/30 10:48:07;;;;;;;;;;;22.70;79.80;;;;;;5030431;28;19917;-61
2021/06/30 10:50:38;;;;;;;;;;;22.70;80.00;;;;;;5031230;28;19917;-62
2021/06/30 10:53:04;;;;;;;;;;;22.70;79.80;;;;;;5029777;28;19925;-60
2021/06/30 10:58:10;;;;;;;;;;;22.90;79.90;;;;;;5030864;28;19921;-60
2021/06/30 11:00:36;;;;;;;;;;;23.00;80.00;;;;;;5030479;28;19917;-60
2021/06/30 11:03:21;;;;;;;;;;;23.20;80.20;;;;;;5030822;28;19944;-61
2021/06/30 11:05:47;;;;;;;;;;;23.40;79.80;;;;;;5028240;28;19929;-62
2021/06/30 11:08:31;;;;;;;;;;;23.70;79.40;;;;;;5027482;28;19925;-62
2021/06/30 11:10:57;;;;;;;;;;;24.00;79.70;;;;;;5029325;28;19917;-63
2021/06/30 11:13:42;;;;;;;;;;;24.90;80.70;;;;;;5029054;28;20293;-66
2021/06/30 11:16:08;;;;;;;;;;;25.70;79.00;;;;;;5029653;28;19968;-65
2021/06/30 11:18:33;;;;;;;;;;;26.10;75.70;;;;;;5028456;28;19921;-64
2021/06/30 11:21:03;;;;;;;;;;;26.10;75.20;;;;;;5029798;28;19925;-62
2021/06/30 11:23:29;;;;;;;;;;;25.90;72.80;;;;;;5029195;28;20399;-63
2021/06/30 11:25:56;;;;;;;;;;;25.60;72.20;;;;;;5031239;28;19925;-64
2021/06/30 11:28:28;;;;;;;;;;;25.50;72.10;;;;;;5031552;28;20277;-63
2021/06/30 11:30:54;;;;;;;;;;;25.50;72.30;;;;;;5033833;28;19918;-62
2021/06/30 11:33:19;;;;;;;;;;;25.40;71.30;;;;;;5033765;28;19920;-63
2021/06/30 11:35:45;;;;;;;;;;;25.30;71.30;;;;;;5034120;28;19960;-63
2021/06/30 11:38:24;;;;;;;;;;;25.30;71.40;;;;;;5032956;28;20476;-63
2021/06/30 11:41:04;;;;;;;;;;;25.40;71.30;;;;;;5032112;28;20325;-63
2021/06/30 11:43:32;;;;;;;;;;;25.60;70.00;;;;;;5032427;28;19918;-63
2021/06/30 11:45:59;;;;;;;;;;;25.70;70.70;;;;;;5033506;28;21463;-63
2021/06/30 11:48:25;;;;;;;;;;;25.90;70.50;;;;;;5033699;28;19941;-60
2021/06/30 11:50:58;;;;;;;;;;;26.20;70.10;;;;;;5032229;28;19967;-61
2021/06/30 11:53:36;;;;;;;;;;;26.40;69.60;;;;;;5034189;28;20268;-61
2021/06/30 11:56:03;;;;;;;;;;;26.40;68.40;;;;;;5031499;28;20393;-63
2021/06/30 11:58:42;;;;;;;;;;;26.10;66.90;;;;;;5017856;28;19927;-61
2021/06/30 12:01:15;;;;;;;;;;;25.80;66.60;;;;;;5017643;28;19957;-65
2021/06/30 12:03:40;;;;;;;;;;;25.40;67.10;;;;;;5020161;28;20416;-65
2021/06/30 12:06:19;;;;;;;;;;;25.10;67.50;;;;;;5009617;28;19929;-63
2021/06/30 12:09:03;;;;;;;;;;;24.90;67.30;;;;;;5004992;28;20068;-65
2021/06/30 12:11:29;;;;;;;;;;;24.60;67.50;;;;;;5012704;28;19920;-65
2021/06/30 12:14:09;;;;;;;;;;;24.70;68.80;;;;;;5007246;28;19932;-65
2021/06/30 12:16:45;;;;;;;;;;;24.90;69.40;;;;;;5030790;28;19928;-67
2021/06/30 12:19:11;;;;;;;;;;;25.30;69.20;;;;;;5028689;28;19928;-65
2021/06/30 12:21:38;;;;;;;;;;;25.50;69.30;;;;;;5032865;28;20369;-66
2021/06/30 12:24:11;;;;;;;;;;;25.90;67.80;;;;;;5003409;28;19966;-66
2021/06/30 12:26:36;;;;;;;;;;;26.00;67.20;;;;;;5014829;28;19995;-61
2021/06/30 12:29:02;;;;;;;;;;;26.20;66.90;;;;;;5010706;28;19945;-60
2021/06/30 12:31:28;;;;;;;;;;;26.50;66.70;;;;;;5010456;28;19928;-60
2021/06/30 12:33:53;;;;;;;;;;;26.70;66.70;;;;;;5018992;28;19967;-60
2021/06/30 12:36:22;;;;;;;;;;;26.90;64.80;;;;;;5020729;28;20012;-60
2021/06/30 12:38:48;;;;;;;;;;;26.70;63.70;;;;;;4997193;28;19944;-59
2021/06/30 12:41:13;;;;;;;;;;;26.30;63.00;;;;;;5019851;28;19918;-62
2021/06/30 12:43:40;;;;;;;;;;;25.90;62.80;;;;;;5018456;28;19971;-62
2021/06/30 12:46:15;;;;;;;;;;;25.60;63.50;;;;;;5026050;28;19952;-62
2021/06/30 12:48:43;;;;;;;;;;;25.40;63.90;;;;;;5022488;28;19917;-62
2021/06/30 12:51:12;;;;;;;;;;;25.30;64.40;;;;;;5018697;28;19930;-66
2021/06/30 12:53:39;;;;;;;;;;;25.20;64.50;;;;;;5021327;28;20533;-60
2021/06/30 12:56:11;;;;;;;;;;;25.20;64.40;;;;;;5013026;28;19944;-61
2021/06/30 12:58:47;;;;;;;;;;;25.10;64.50;;;;;;5011751;28;20328;-60
2021/06/30 13:01:14;;;;;;;;;;;25.10;65.30;;;;;;5012008;28;20362;-61
2021/06/30 13:03:46;;;;;;;;;;;25.30;65.80;;;;;;5014744;28;19918;-61
2021/06/30 13:06:22;;;;;;;;;;;25.40;65.50;;;;;;5013245;28;19929;-66
2021/06/30 13:08:58;;;;;;;;;;;25.50;64.30;;;;;;5012047;28;19929;-66
2021/06/30 13:11:24;;;;;;;;;;;25.40;64.60;;;;;;5012275;28;19921;-65
2021/06/30 13:13:53;;;;;;;;;;;25.30;63.90;;;;;;5012464;28;20332;-63
2021/06/30 13:16:19;;;;;;;;;;;25.10;63.50;;;;;;5012864;28;19917;-63
2021/06/30 13:18:46;;;;;;;;;;;24.80;64.00;;;;;;5010963;28;20443;-64
2021/06/30 13:21:12;;;;;;;;;;;24.60;64.80;;;;;;5019338;28;19971;-63
2021/06/30 13:24:10;;;;;;;;;;;24.50;64.90;;;;;;5020186;28;19921;-64
2021/06/30 13:35:17;;;;;;;;;;;23.90;66.10;;;;;;4999800;28;19917;-61
2021/06/30 13:37:42;;;;;;;;;;;23.80;66.30;;;;;;5016762;28;20302;-63
2021/06/30 13:40:08;;;;;;;;;;;23.60;66.60;;;;;;5020068;28;19964;-62
2021/06/30 13:42:34;;;;;;;;;;;23.50;66.80;;;;;;5021746;28;19917;-62
2021/06/30 13:44:59;;;;;;;;;;;23.40;66.80;;;;;;5022663;28;20016;-63
2021/06/30 13:47:25;;;;;;;;;;;23.20;67.40;;;;;;5025790;28;19917;-61
2021/06/30 13:49:51;;;;;;;;;;;23.20;68.00;;;;;;5031392;28;20012;-62
2021/06/30 13:52:16;;;;;;;;;;;23.10;68.00;;;;;;5020023;28;19921;-61
2021/06/30 13:54:42;;;;;;;;;;;23.00;67.90;;;;;;5014418;28;19924;-62
2021/06/30 13:57:08;;;;;;;;;;;22.90;68.10;;;;;;4992266;28;19972;-62
2021/06/30 13:59:33;;;;;;;;;;;22.80;68.30;;;;;;5004715;28;19953;-63
2021/06/30 14:01:59;;;;;;;;;;;22.60;68.60;;;;;;5012432;28;19917;-64
2021/06/30 14:04:25;;;;;;;;;;;22.50;68.90;;;;;;5023117;28;20032;-63
2021/06/30 14:06:52;;;;;;;;;;;22.30;69.20;;;;;;5020049;28;21201;-61
2021/06/30 14:09:17;;;;;;;;;;;22.20;69.80;;;;;;5011467;28;19949;-61
2021/06/30 14:11:43;;;;;;;;;;;22.10;70.00;;;;;;5011029;28;19952;-59
2021/06/30 14:14:08;;;;;;;;;;;22.10;70.00;;;;;;5010697;28;19921;-66
2021/06/30 14:16:34;;;;;;;;;;;22.00;70.20;;;;;;4994993;28;20564;-66
2021/06/30 14:19:00;;;;;;;;;;;21.90;70.40;;;;;;5009964;28;19918;-64
2021/06/30 14:21:27;;;;;;;;;;;21.80;70.70;;;;;;5016435;28;20435;-65
2021/06/30 14:23:53;;;;;;;;;;;21.70;70.90;;;;;;5023053;28;20030;-65
2021/06/30 14:26:19;;;;;;;;;;;21.50;71.10;;;;;;5016124;28;20457;-66
2021/06/30 14:28:44;;;;;;;;;;;21.50;71.50;;;;;;5009421;28;19997;-66
2021/06/30 14:31:11;;;;;;;;;;;21.40;71.70;;;;;;5007044;28;19924;-66